createdAt,value
2022-09-23T00:00:21.668Z,98712.5
2022-09-23T00:05:56.661Z,98715.7
2022-09-23T00:11:53.336Z,98719.6
2022-09-23T00:17:26.891Z,98724.3
2022-09-23T00:23:01.823Z,98723.7
2022-09-23T00:28:37.199Z,98728.1
2022-09-23T00:34:12.067Z,98734.7
2022-09-23T00:39:46.785Z,98728.6
2022-09-23T00:45:22.989Z,98726.8
2022-09-23T00:50:58.935Z,98718.7
2022-09-23T00:56:33.787Z,98714.2
2022-09-23T01:02:13.653Z,98707.7
2022-09-23T01:07:49.183Z,98703.6
2022-09-23T01:13:45.805Z,98702.9
2022-09-23T01:19:18.429Z,98703.2
2022-09-23T01:25:01.220Z,98704
2022-09-23T01:30:37.272Z,98709.6
2022-09-23T01:36:14.058Z,98709.9
2022-09-23T01:41:51.903Z,98704.3
2022-09-23T01:47:27.751Z,98693.6
2022-09-23T01:53:02.682Z,98684.9
2022-09-23T01:58:37.745Z,98681
2022-09-23T02:04:22.824Z,98682.1
2022-09-23T02:10:21.650Z,98676.9
2022-09-23T02:15:56.453Z,98671.7
2022-09-23T02:21:31.234Z,98674.8
2022-09-23T02:27:06.081Z,98677.5
2022-09-23T02:32:40.868Z,98676.4
2022-09-23T02:38:25.577Z,98681.8
2022-09-23T02:44:00.748Z,98680
2022-09-23T02:49:35.604Z,98679.9
2022-09-23T02:55:11.522Z,98681.5
2022-09-23T03:00:47.173Z,98674.1
2022-09-23T03:06:22.328Z,98668
2022-09-23T03:12:18.839Z,98663.7
2022-09-23T03:17:51.354Z,98664.1
2022-09-23T03:23:35.453Z,98662.7
2022-09-23T03:29:11.215Z,98661.3
2022-09-23T03:34:48.093Z,98657.4
2022-09-23T03:40:23.502Z,98647.4
2022-09-23T03:45:59.252Z,98643.4
2022-09-23T03:51:34.558Z,98649.6
2022-09-23T03:57:18.536Z,98636.2
2022-09-23T04:02:53.285Z,98633.9
2022-09-23T04:08:28.442Z,98634.4
2022-09-23T04:14:25.531Z,98629.2
2022-09-23T04:19:58.128Z,98618.6
2022-09-23T04:25:53.733Z,98617.1
2022-09-23T04:31:31.415Z,98621.1
2022-09-23T04:37:06.709Z,98617.1
2022-09-23T04:42:41.916Z,98609.4
2022-09-23T04:48:17.389Z,98605.6
2022-09-23T04:53:53.126Z,98601.7
2022-09-23T04:59:48.974Z,98597
2022-09-23T05:05:23.906Z,98596.3
2022-09-23T05:11:28.137Z,98594.8
2022-09-23T05:17:00.609Z,98598.2
2022-09-23T05:22:35.541Z,98603.8
2022-09-23T05:28:11.917Z,98599.1
2022-09-23T05:33:46.937Z,98590.9
2022-09-23T05:39:22.014Z,98591.9
2022-09-23T05:44:59.798Z,98597.5
2022-09-23T05:50:45.076Z,98594.7
2022-09-23T05:56:24.780Z,98592
2022-09-23T06:02:01.101Z,98589.8
2022-09-23T06:07:49.243Z,98587.3
2022-09-23T06:13:48.893Z,98599.2
2022-09-23T06:19:22.806Z,98597.8
2022-09-23T06:24:58.657Z,98594.8
2022-09-23T06:30:33.436Z,98592.1
2022-09-23T06:36:08.619Z,98598.4
2022-09-23T06:41:44.959Z,98612.4
2022-09-23T06:47:20.469Z,98625.2
2022-09-23T06:52:55.426Z,98625.2
2022-09-23T06:58:31.866Z,98624.1
2022-09-23T07:04:08.661Z,98627.3
2022-09-23T07:09:43.684Z,98629.2
2022-09-23T07:15:19.489Z,98647.7
2022-09-23T07:20:56.063Z,98649.1
2022-09-23T07:26:31.041Z,98640.5
2022-09-23T07:32:31.102Z,98634.2
2022-09-23T07:38:34.468Z,98639
2022-09-23T07:44:20.053Z,98649.4
2022-09-23T07:50:04.007Z,98637.9
2022-09-23T07:55:40.365Z,98643.3
2022-09-23T08:01:15.724Z,98645
2022-09-23T08:06:52.237Z,98648.1
2022-09-23T08:12:49.351Z,98648.5
2022-09-23T08:18:22.907Z,98651.1
2022-09-23T08:23:58.014Z,98656.1
2022-09-23T08:29:38.236Z,98659.7
2022-09-23T08:35:13.614Z,98655.9
2022-09-23T08:40:57.103Z,98653.1
2022-09-23T08:46:32.189Z,98657.9
2022-09-23T08:52:16.758Z,98662.5
2022-09-23T08:58:26.599Z,98661
2022-09-23T09:04:03.011Z,98642.4
2022-09-23T09:09:37.884Z,98637.2
2022-09-23T09:15:12.681Z,98637.3
2022-09-23T09:20:48.704Z,98645
2022-09-23T09:26:23.743Z,98641.1
2022-09-23T09:31:59.059Z,98643.7
2022-09-23T09:37:34.224Z,98638.4
2022-09-23T09:43:09.376Z,98634.4
2022-09-23T09:48:44.371Z,98636.9
2022-09-23T09:54:19.266Z,98635.5
2022-09-23T09:59:54.048Z,98646
2022-09-23T10:06:52.787Z,98642.7
2022-09-23T10:12:27.840Z,98626
2022-09-23T10:18:02.615Z,98626.1
2022-09-23T10:23:37.730Z,98627
2022-09-23T10:29:13.435Z,98629.5
2022-09-23T10:34:49.332Z,98634.4
2022-09-23T10:40:30.919Z,98641.5
2022-09-23T10:46:07.289Z,98635.9
2022-09-23T10:51:42.943Z,98633.3
2022-09-23T10:57:26.864Z,98634.6
2022-09-23T11:03:01.671Z,98626.1
2022-09-23T11:08:36.589Z,98622.8
2022-09-23T11:14:12.672Z,98620.1
2022-09-23T11:19:47.655Z,98618.8
2022-09-23T11:25:44.406Z,98624.7
2022-09-23T11:31:20.316Z,98626.3
2022-09-23T11:37:02.939Z,98630.6
2022-09-23T11:42:37.681Z,98624.2
2022-09-23T11:48:15.800Z,98618.9
2022-09-23T11:53:51.075Z,98621.2
2022-09-23T11:59:41.536Z,98609.3
2022-09-23T12:05:18.614Z,98603.1
2022-09-23T12:10:56.049Z,98600.5
2022-09-23T12:16:31.366Z,98595
2022-09-23T12:22:07.002Z,98595.1
2022-09-23T12:27:43.460Z,98586.8
2022-09-23T12:33:18.637Z,98590.4
2022-09-23T12:38:53.801Z,98590.3
2022-09-23T12:44:28.595Z,98590.5
2022-09-23T12:50:03.403Z,98587.4
2022-09-23T12:55:38.422Z,98591.6
2022-09-23T13:01:14.566Z,98593.7
2022-09-23T13:06:51.143Z,98586.6
2022-09-23T13:12:27.044Z,98581.8
2022-09-23T13:18:04.126Z,98599.3
2022-09-23T13:23:39.124Z,98592.8
2022-09-23T13:29:14.085Z,98588.4
2022-09-23T13:34:48.871Z,98590.5
2022-09-23T13:40:24.640Z,98583
2022-09-23T13:46:08.096Z,98587.6
2022-09-23T13:51:44.250Z,98584.7
2022-09-23T13:57:19.340Z,98591.1
2022-09-23T14:02:54.541Z,98587.5
2022-09-23T14:08:29.589Z,98588.4
2022-09-23T14:14:04.544Z,98584.5
2022-09-23T14:19:40.437Z,98583.2
2022-09-23T14:25:15.414Z,98574.8
2022-09-23T14:30:51.638Z,98571.3
2022-09-23T14:36:27.261Z,98567
2022-09-23T14:42:02.762Z,98558
2022-09-23T14:47:37.614Z,98555.6
2022-09-23T14:53:12.923Z,98548.7
2022-09-23T14:58:53.706Z,98524.6
2022-09-23T15:04:28.944Z,98520.4
2022-09-23T15:10:04.263Z,98523.3
2022-09-23T15:15:40.176Z,98521.3
2022-09-23T15:21:14.989Z,98520
2022-09-23T15:26:49.962Z,98517.7
2022-09-23T15:32:26.034Z,98519.6
2022-09-23T15:38:00.759Z,98526.2
2022-09-23T15:43:36.449Z,98527.1
2022-09-23T15:49:19.777Z,98518.4
2022-09-23T15:54:57.586Z,98519.2
2022-09-23T16:00:32.493Z,98529.5
2022-09-23T16:06:08.009Z,98536
2022-09-23T16:11:43.218Z,98540.3
2022-09-23T16:17:18.268Z,98544
2022-09-23T16:22:54.154Z,98543.4
2022-09-23T16:28:28.900Z,98561.8
2022-09-23T16:34:03.930Z,98581
2022-09-23T16:39:42.352Z,98607.1
2022-09-23T16:45:19.965Z,98617.4
2022-09-23T16:50:54.810Z,98620.4
2022-09-23T16:56:30.067Z,98619.1
2022-09-23T17:02:06.212Z,98633.4
2022-09-23T17:07:43.423Z,98647.6
2022-09-23T17:13:18.794Z,98673.7
2022-09-23T17:18:54.117Z,98690.2
2022-09-23T17:24:29.233Z,98687.7
2022-09-23T17:30:04.371Z,98697.1
2022-09-23T17:35:39.204Z,98710.8
2022-09-23T17:41:15.348Z,98694.8
2022-09-23T17:47:01.954Z,98688.7
2022-09-23T17:52:36.613Z,98685.9
2022-09-23T17:58:11.560Z,98674.8
2022-09-23T18:03:46.650Z,98667.1
2022-09-23T18:09:21.542Z,98658.6
2022-09-23T18:14:56.545Z,98660.4
2022-09-23T18:20:31.534Z,98656.2
2022-09-23T18:26:06.687Z,98640.8
2022-09-23T18:31:42.494Z,98643.3
2022-09-23T18:37:19.050Z,98640.6
2022-09-23T18:42:54.929Z,98627.6
2022-09-23T18:48:31.450Z,98624.8
2022-09-23T18:54:08.377Z,98625.2
2022-09-23T18:59:43.635Z,98645.8
2022-09-23T19:05:19.874Z,98656.9
2022-09-23T19:11:16.455Z,98670.4
2022-09-23T19:16:50.066Z,98674
2022-09-23T19:22:25.366Z,98686.4
2022-09-23T19:28:01.262Z,98695.3
2022-09-23T19:33:36.555Z,98699.4
2022-09-23T19:39:12.999Z,98692.7
2022-09-23T19:44:47.730Z,98698
2022-09-23T19:50:23.104Z,98697.5
2022-09-23T19:55:58.138Z,98692.3
2022-09-23T20:01:34.881Z,98694.1
2022-09-23T20:07:10.435Z,98697.3
2022-09-23T20:12:45.260Z,98701.2
2022-09-23T20:18:20.340Z,98693.7
2022-09-23T20:23:55.312Z,98690.6
2022-09-23T20:29:30.098Z,98698.8
2022-09-23T20:35:05.163Z,98705.4
2022-09-23T20:40:40.999Z,98696.3
2022-09-23T20:46:16.829Z,98705.9
2022-09-23T20:51:52.903Z,98706.4
2022-09-23T20:57:28.297Z,98705.9
2022-09-23T21:03:03.368Z,98696.6
2022-09-23T21:08:38.131Z,98700.2
2022-09-23T21:14:12.986Z,98702.6
2022-09-23T21:19:48.931Z,98703.1
2022-09-23T21:25:31.792Z,98705.1
2022-09-23T21:31:09.741Z,98703.7
2022-09-23T21:36:45.355Z,98696.5
2022-09-23T21:42:21.869Z,98700.5
2022-09-23T21:47:57.861Z,98704.7
2022-09-23T21:53:32.945Z,98696.2
2022-09-23T21:59:08.706Z,98696.2
2022-09-23T22:04:50.591Z,98688.5
2022-09-23T22:10:25.521Z,98688.4
2022-09-23T22:16:00.876Z,98682.3
2022-09-23T22:21:37.767Z,98676.1
2022-09-23T22:27:12.804Z,98667.6
2022-09-23T22:32:55.679Z,98666.7
2022-09-23T22:38:32.675Z,98668
2022-09-23T22:44:09.933Z,98672.5
2022-09-23T22:49:45.145Z,98669.9
2022-09-23T22:55:22.073Z,98660.5
2022-09-23T23:00:57.112Z,98661.5
2022-09-23T23:06:33.060Z,98658.3
2022-09-23T23:12:30.069Z,98647.2
2022-09-23T23:18:02.571Z,98644.9
2022-09-23T23:23:37.281Z,98637.7
2022-09-23T23:29:13.306Z,98633.2
2022-09-23T23:34:48.184Z,98623.8
2022-09-23T23:40:23.612Z,98615.5
2022-09-23T23:45:59.138Z,98613.1
2022-09-23T23:51:34.055Z,98604.7
2022-09-23T23:57:09.114Z,98594.7
